createdAt,value
2018-11-05T00:02:47.320Z,77.4
2018-11-05T00:07:48.239Z,77.1
2018-11-05T00:12:29.982Z,77.1
2018-11-05T00:17:28.784Z,77.1
2018-11-05T00:22:27.308Z,76.8
2018-11-05T00:27:28.048Z,77.0
2018-11-05T00:32:28.740Z,77.3
2018-11-05T00:37:27.429Z,77.2
2018-11-05T00:42:28.238Z,76.9
2018-11-05T00:47:28.774Z,76.8
2018-11-05T00:52:28.431Z,76.6
2018-11-05T00:57:27.533Z,76.8
2018-11-05T01:02:27.773Z,77.0
2018-11-05T01:07:28.766Z,77.0
2018-11-05T01:12:28.703Z,76.7
2018-11-05T01:17:28.864Z,76.7
2018-11-05T01:22:28.059Z,77.1
2018-11-05T01:27:28.464Z,77.0
2018-11-05T01:32:27.987Z,76.8
2018-11-05T01:37:28.191Z,76.8
2018-11-05T01:42:27.655Z,77.0
2018-11-05T01:47:28.581Z,76.9
2018-11-05T01:52:28.109Z,77.2
2018-11-05T01:57:28.152Z,77.2
2018-11-05T02:02:28.551Z,77.1
2018-11-05T02:07:28.108Z,77.0
2018-11-05T02:12:28.204Z,77.1
2018-11-05T02:17:28.342Z,77.1
2018-11-05T02:22:28.129Z,76.9
2018-11-05T02:27:27.846Z,77.0
2018-11-05T02:32:27.643Z,77.0
2018-11-05T02:37:28.104Z,77.0
2018-11-05T02:42:28.393Z,77.0
2018-11-05T02:47:29.564Z,77.0
2018-11-05T02:52:28.315Z,77.0
2018-11-05T02:57:27.843Z,77.0
2018-11-05T03:02:27.748Z,76.9
2018-11-05T03:07:28.019Z,77.2
2018-11-05T03:12:27.745Z,77.2
2018-11-05T03:17:27.912Z,77.1
2018-11-05T03:22:28.243Z,77.3
2018-11-05T03:27:30.061Z,77.2
2018-11-05T03:32:28.783Z,76.9
2018-11-05T03:37:28.133Z,76.9
2018-11-05T03:42:28.228Z,76.9
2018-11-05T03:47:28.555Z,76.9
2018-11-05T03:52:28.526Z,77.1
2018-11-05T03:57:28.388Z,77.4
2018-11-05T04:02:27.522Z,77.4
2018-11-05T04:07:28.509Z,76.9
2018-11-05T04:12:28.149Z,76.9
2018-11-05T04:17:28.058Z,77.2
2018-11-05T04:22:28.262Z,77.2
2018-11-05T04:27:30.822Z,77.0
2018-11-05T04:32:28.657Z,76.8
2018-11-05T04:37:28.429Z,77.0
2018-11-05T04:42:27.662Z,76.9
2018-11-05T04:47:28.424Z,76.8
2018-11-05T04:52:27.968Z,77.0
2018-11-05T04:57:28.926Z,76.8
2018-11-05T05:02:28.183Z,76.8
2018-11-05T05:07:28.809Z,76.8
2018-11-05T05:12:27.496Z,76.6
2018-11-05T05:17:28.355Z,76.6
2018-11-05T05:22:28.268Z,76.4
2018-11-05T05:27:27.921Z,76.6
2018-11-05T05:32:28.361Z,76.5
2018-11-05T05:37:28.147Z,76.6
2018-11-05T05:42:28.018Z,76.4
2018-11-05T05:47:28.760Z,76.7
2018-11-05T05:52:28.422Z,76.7
2018-11-05T05:57:28.322Z,76.7
2018-11-05T06:02:28.037Z,76.7
2018-11-05T06:07:28.065Z,76.7
2018-11-05T06:12:27.663Z,76.6
2018-11-05T06:17:28.687Z,76.5
2018-11-05T06:22:28.720Z,76.7
2018-11-05T06:27:28.488Z,76.6
2018-11-05T06:32:28.715Z,77.0
2018-11-05T06:37:28.375Z,76.8
2018-11-05T06:42:28.990Z,76.8
2018-11-05T06:47:28.594Z,76.8
2018-11-05T06:52:28.991Z,76.8
2018-11-05T06:57:28.864Z,76.8
2018-11-05T07:02:29.181Z,76.8
2018-11-05T07:07:28.635Z,76.8
2018-11-05T07:12:28.395Z,76.5
2018-11-05T07:17:29.439Z,76.8
2018-11-05T07:22:28.825Z,76.4
2018-11-05T07:27:28.368Z,76.2
2018-11-05T07:32:29.238Z,76.0
2018-11-05T07:37:28.760Z,76.0
2018-11-05T07:42:29.566Z,75.8
2018-11-05T07:47:29.197Z,75.5
2018-11-05T07:52:29.866Z,75.7
2018-11-05T07:57:28.883Z,75.7
2018-11-05T08:02:28.684Z,75.6
2018-11-05T08:07:28.915Z,75.7
2018-11-05T08:12:28.730Z,75.7
2018-11-05T08:17:28.765Z,75.7
2018-11-05T08:22:29.092Z,75.5
2018-11-05T08:27:28.266Z,75.5
2018-11-05T08:32:29.104Z,75.6
2018-11-05T08:37:28.568Z,75.1
2018-11-05T08:42:29.327Z,75.2
2018-11-05T08:47:29.280Z,75.3
2018-11-05T08:52:28.398Z,75.3
2018-11-05T08:57:28.692Z,75.2
2018-11-05T09:02:28.779Z,75.2
2018-11-05T09:07:28.267Z,75.1
2018-11-05T09:12:28.519Z,75.2
2018-11-05T09:17:28.838Z,75.2
2018-11-05T09:22:29.041Z,75.2
2018-11-05T09:27:28.705Z,75.4
2018-11-05T09:32:28.777Z,75.7
2018-11-05T09:37:29.266Z,75.6
2018-11-05T09:42:28.333Z,75.4
2018-11-05T09:47:29.075Z,75.3
2018-11-05T09:52:28.389Z,75.1
2018-11-05T09:57:28.197Z,74.9
2018-11-05T10:02:28.988Z,74.6
2018-11-05T10:07:29.007Z,74.8
2018-11-05T10:12:29.330Z,75.6
2018-11-05T10:17:28.761Z,75.6
2018-11-05T10:22:29.720Z,75.8
2018-11-05T10:27:28.264Z,75.9
2018-11-05T10:32:28.404Z,75.4
2018-11-05T10:37:28.638Z,75.4
2018-11-05T10:42:28.928Z,75.4
2018-11-05T10:47:28.996Z,75.6
2018-11-05T10:52:29.478Z,75.6
2018-11-05T10:57:29.003Z,75.7
2018-11-05T11:02:29.342Z,75.4
2018-11-05T11:07:28.799Z,75.0
2018-11-05T11:12:29.301Z,74.9
2018-11-05T11:17:28.613Z,75.7
2018-11-05T11:22:28.092Z,76.0
2018-11-05T11:27:29.488Z,77.3
2018-11-05T11:32:28.708Z,77.2
2018-11-05T11:37:29.185Z,78.3
2018-11-05T11:42:28.776Z,78.3
2018-11-05T11:47:28.208Z,78.3
2018-11-05T11:52:28.901Z,77.6
2018-11-05T11:57:28.425Z,77.9
2018-11-05T12:02:29.340Z,78.0
2018-11-05T12:07:28.699Z,78.3
2018-11-05T12:12:29.033Z,78.7
2018-11-05T12:17:28.895Z,79.1
2018-11-05T12:22:28.988Z,79.5
2018-11-05T12:27:27.942Z,80.6
2018-11-05T12:32:29.928Z,80.6
2018-11-05T12:37:28.594Z,80.1
2018-11-05T12:42:28.223Z,80.9
2018-11-05T12:47:28.549Z,81.1
2018-11-05T12:52:29.003Z,81.4
2018-11-05T12:57:28.800Z,81.6
2018-11-05T13:02:28.682Z,81.6
2018-11-05T13:07:28.990Z,82.4
2018-11-05T13:12:29.171Z,82.4
2018-11-05T13:17:28.913Z,82.4
2018-11-05T13:22:29.717Z,82.5
2018-11-05T13:27:28.187Z,82.6
2018-11-05T13:32:28.541Z,82.6
2018-11-05T13:37:29.849Z,82.3
2018-11-05T13:42:29.480Z,81.3
2018-11-05T13:47:31.032Z,81.0
2018-11-05T13:52:29.347Z,80.2
2018-11-05T13:57:28.702Z,79.0
2018-11-05T14:02:29.392Z,78.3
2018-11-05T14:07:28.418Z,77.0
2018-11-05T14:12:29.138Z,76.2
2018-11-05T14:17:29.145Z,74.1
2018-11-05T14:22:29.268Z,73.4
2018-11-05T14:27:29.458Z,71.7
2018-11-05T14:32:28.155Z,71.7
2018-11-05T14:37:29.330Z,70.7
2018-11-05T14:42:28.941Z,70.5
2018-11-05T14:47:28.562Z,72.2
2018-11-05T14:52:28.387Z,73.2
2018-11-05T14:57:29.043Z,71.1
2018-11-05T15:02:28.900Z,73.3
2018-11-05T15:07:29.749Z,77.4
2018-11-05T15:12:29.148Z,73.6
2018-11-05T15:17:33.016Z,70.9
2018-11-05T15:22:28.735Z,71.0
2018-11-05T15:27:29.688Z,71.0
2018-11-05T15:32:29.048Z,72.7
2018-11-05T15:37:28.613Z,72.1
2018-11-05T15:42:28.313Z,74.2
2018-11-05T15:47:28.595Z,74.8
2018-11-05T15:52:29.060Z,76.4
2018-11-05T15:57:28.381Z,78.3
2018-11-05T16:02:28.706Z,80.9
2018-11-05T16:07:28.924Z,82.2
2018-11-05T16:12:28.119Z,83.1
2018-11-05T16:17:29.149Z,83.6
2018-11-05T16:22:29.357Z,83.7
2018-11-05T16:27:28.506Z,83.8
2018-11-05T16:32:28.398Z,83.4
2018-11-05T16:37:28.621Z,83.3
2018-11-05T16:42:27.986Z,82.9
2018-11-05T16:47:28.503Z,82.6
2018-11-05T16:52:28.335Z,82.4
2018-11-05T16:57:28.505Z,81.8
2018-11-05T17:02:28.266Z,81.8
2018-11-05T17:07:28.647Z,81.5
2018-11-05T17:12:28.257Z,81.2
2018-11-05T17:17:28.302Z,81.5
2018-11-05T17:22:27.765Z,81.5
2018-11-05T17:27:28.617Z,81.3
2018-11-05T17:32:28.221Z,81.0
2018-11-05T17:37:30.031Z,80.6
2018-11-05T17:42:27.948Z,81.0
2018-11-05T17:47:28.369Z,81.0
2018-11-05T17:52:28.011Z,81.0
2018-11-05T17:57:28.502Z,80.6
2018-11-05T18:02:28.097Z,80.4
2018-11-05T18:07:28.155Z,80.1
2018-11-05T18:12:28.649Z,80.0
2018-11-05T18:17:28.829Z,79.9
2018-11-05T18:22:29.359Z,79.7
2018-11-05T18:27:27.946Z,79.4
2018-11-05T18:32:27.968Z,78.8
2018-11-05T18:37:28.657Z,78.6
2018-11-05T18:42:28.302Z,78.6
2018-11-05T18:47:28.142Z,78.7
2018-11-05T18:52:28.566Z,78.6
2018-11-05T18:57:28.251Z,78.8
2018-11-05T19:02:28.393Z,78.7
2018-11-05T19:07:28.511Z,78.6
2018-11-05T19:12:28.759Z,78.7
2018-11-05T19:17:28.571Z,78.3
2018-11-05T19:22:28.487Z,78.3
2018-11-05T19:27:28.781Z,79.8
2018-11-05T19:32:28.795Z,78.3
2018-11-05T19:37:27.948Z,78.3
2018-11-05T19:42:28.971Z,78.3
2018-11-05T19:47:28.625Z,78.2
2018-11-05T19:52:28.177Z,78.2
2018-11-05T19:57:27.732Z,78.1
2018-11-05T20:02:28.655Z,78.1
2018-11-05T20:07:28.358Z,78.1
2018-11-05T20:12:29.227Z,77.8
2018-11-05T20:17:28.514Z,77.7
2018-11-05T20:22:28.217Z,77.7
2018-11-05T20:27:27.951Z,77.6
2018-11-05T20:32:29.245Z,77.6
2018-11-05T20:37:27.691Z,77.5
2018-11-05T20:42:27.891Z,77.5
2018-11-05T20:47:28.282Z,77.1
2018-11-05T20:52:28.333Z,77.0
2018-11-05T20:57:27.806Z,76.8
2018-11-05T21:02:28.149Z,76.8
2018-11-05T21:07:28.799Z,76.8
2018-11-05T21:12:27.730Z,76.7
2018-11-05T21:17:28.426Z,76.3
2018-11-05T21:22:28.572Z,76.2
2018-11-05T21:27:28.210Z,76.2
2018-11-05T21:32:28.778Z,76.1
2018-11-05T21:37:29.007Z,76.0
2018-11-05T21:42:28.135Z,76.0
2018-11-05T21:47:29.054Z,76.2
2018-11-05T21:52:27.899Z,76.3
2018-11-05T21:57:28.012Z,76.0
2018-11-05T22:02:28.193Z,75.9
2018-11-05T22:07:27.892Z,76.0
2018-11-05T22:12:29.409Z,76.0
2018-11-05T22:17:29.136Z,75.9
2018-11-05T22:22:29.175Z,75.5
2018-11-05T22:27:29.989Z,75.5
2018-11-05T22:32:28.913Z,75.4
2018-11-05T22:37:29.085Z,75.4
2018-11-05T22:42:28.736Z,75.3
2018-11-05T22:47:28.786Z,75.2
2018-11-05T22:52:28.494Z,75.2
2018-11-05T22:57:27.938Z,75.7
2018-11-05T23:02:28.526Z,75.7
2018-11-05T23:07:28.748Z,75.2
2018-11-05T23:12:27.848Z,75.3
2018-11-05T23:23:06.478Z,74.6
2018-11-05T23:28:03.599Z,74.9
2018-11-05T23:33:05.045Z,74.9
2018-11-05T23:38:04.911Z,74.9
2018-11-05T23:43:03.884Z,75.0
2018-11-05T23:48:04.587Z,75.0
2018-11-05T23:53:03.877Z,75.1
2018-11-05T23:58:05.082Z,74.7
